Time;durP1;ratioP1;P1;durP2;ratioP2;P2;SDS_P1;SDS_P2;PMS_P1;PMS_P2;Temp;Humidity;BMP_temperature;BMP_pressure;BME280_temperature;BME280_humidity;BME280_pressure;Samples;Min_cycle;Max_cycle;Signal;HPM_P1;HPM_P2
2021/08/11 00:00:25;;;;;;;5.38;4.80;;;24.60;68.80;;;;;;5055437;28;20461;-74
2021/08/11 00:02:51;;;;;;;7.32;4.55;;;24.50;68.90;;;;;;5055293;28;20049;-74
2021/08/11 00:05:17;;;;;;;5.68;5.18;;;24.50;69.10;;;;;;5053772;28;20083;-73
2021/08/11 00:07:42;;;;;;;9.60;5.32;;;24.40;69.20;;;;;;5054056;28;20025;-73
2021/08/11 00:10:09;;;;;;;6.45;4.47;;;24.40;69.40;;;;;;5053956;28;20029;-73
2021/08/11 00:12:35;;;;;;;6.35;5.30;;;24.40;69.50;;;;;;5053938;28;20448;-73
2021/08/11 00:15:02;;;;;;;7.15;5.07;;;24.40;69.60;;;;;;5055403;28;20033;-73
2021/08/11 00:17:27;;;;;;;7.75;4.47;;;24.30;69.60;;;;;;5055273;28;20057;-73
2021/08/11 00:19:53;;;;;;;9.73;5.35;;;24.30;69.80;;;;;;5055383;28;20065;-75
2021/08/11 00:22:19;;;;;;;7.35;4.82;;;24.30;69.90;;;;;;5054822;28;20032;-73
2021/08/11 00:24:44;;;;;;;5.47;4.97;;;24.20;69.80;;;;;;5055327;28;20025;-74
2021/08/11 00:27:10;;;;;;;6.03;4.57;;;24.20;70.00;;;;;;5053664;28;20028;-74
2021/08/11 00:29:36;;;;;;;7.43;5.20;;;24.20;70.10;;;;;;5054618;28;20419;-74
2021/08/11 00:32:02;;;;;;;6.88;4.82;;;24.20;70.20;;;;;;5054855;28;20075;-74
2021/08/11 00:34:28;;;;;;;5.70;5.15;;;24.10;70.30;;;;;;5054587;28;20029;-74
2021/08/11 00:36:54;;;;;;;5.78;4.95;;;24.10;70.50;;;;;;5054615;28;20033;-74
2021/08/11 00:39:20;;;;;;;5.88;5.10;;;24.10;70.60;;;;;;5054390;28;20035;-75
2021/08/11 00:41:46;;;;;;;6.18;5.47;;;24.10;70.70;;;;;;5053499;28;20029;-73
2021/08/11 00:44:13;;;;;;;9.25;5.03;;;24.10;70.80;;;;;;5053750;28;20372;-73
2021/08/11 00:46:41;;;;;;;7.07;5.22;;;24.00;70.80;;;;;;5054579;28;20040;-74
2021/08/11 00:49:10;;;;;;;7.43;5.03;;;24.00;71.00;;;;;;5055008;28;20079;-73
2021/08/11 00:51:36;;;;;;;7.75;5.63;;;24.00;71.20;;;;;;5054181;28;20032;-74
2021/08/11 00:54:05;;;;;;;6.20;5.60;;;24.00;71.30;;;;;;5054549;28;20408;-74
2021/08/11 00:56:31;;;;;;;6.93;5.20;;;24.00;71.60;;;;;;5054917;28;20104;-74
2021/08/11 00:58:58;;;;;;;6.43;5.40;;;24.00;71.60;;;;;;5053106;28;20465;-74
2021/08/11 01:01:26;;;;;;;6.38;5.10;;;23.90;71.70;;;;;;5036408;28;20032;-73
2021/08/11 01:03:54;;;;;;;6.93;5.07;;;23.90;71.80;;;;;;5054227;28;20079;-74
2021/08/11 01:06:21;;;;;;;7.22;5.50;;;23.90;71.90;;;;;;5054168;28;20029;-73
2021/08/11 01:08:47;;;;;;;5.35;4.88;;;23.90;72.10;;;;;;5053890;28;20469;-73
2021/08/11 01:11:13;;;;;;;6.38;5.60;;;23.90;72.20;;;;;;5054120;28;20032;-73
2021/08/11 01:13:42;;;;;;;7.90;5.75;;;23.90;72.30;;;;;;5054084;28;20025;-74
2021/08/11 01:16:08;;;;;;;8.50;5.60;;;23.90;72.40;;;;;;5054080;28;20021;-75
2021/08/11 01:18:34;;;;;;;6.30;5.18;;;23.80;72.30;;;;;;5053930;28;20385;-74
2021/08/11 01:21:06;;;;;;;8.77;5.32;;;23.80;72.40;;;;;;5053975;28;20021;-75
2021/08/11 01:23:52;;;;;;;6.28;5.25;;;23.80;72.40;;;;;;5053943;28;20028;-74
2021/08/11 01:26:48;;;;;;;7.63;5.63;;;23.80;72.50;;;;;;5053882;28;20459;-74
2021/08/11 01:29:27;;;;;;;6.72;5.45;;;23.80;72.50;;;;;;5053608;28;20498;-74
2021/08/11 01:32:06;;;;;;;6.20;5.53;;;23.80;72.60;;;;;;5053891;28;20104;-75
2021/08/11 01:34:42;;;;;;;7.72;5.40;;;23.70;72.60;;;;;;5053838;28;20057;-74
2021/08/11 01:37:09;;;;;;;6.15;5.32;;;23.70;72.70;;;;;;5054114;28;20120;-75
2021/08/11 01:39:48;;;;;;;7.55;5.35;;;23.70;72.70;;;;;;5053487;28;20086;-74
2021/08/11 01:42:30;;;;;;;6.47;5.72;;;23.70;72.90;;;;;;5053722;28;20064;-75
2021/08/11 01:45:19;;;;;;;6.35;5.75;;;23.70;73.00;;;;;;5052339;28;20039;-75
2021/08/11 01:47:58;;;;;;;8.93;6.07;;;23.60;73.00;;;;;;5053599;28;20086;-75
2021/08/11 01:50:26;;;;;;;6.50;5.80;;;23.60;73.10;;;;;;5053854;28;20075;-75
2021/08/11 01:52:54;;;;;;;6.32;5.72;;;23.60;73.10;;;;;;5068589;28;20044;-74
2021/08/11 01:55:20;;;;;;;7.68;5.43;;;23.50;73.10;;;;;;5053593;28;20025;-74
2021/08/11 01:57:49;;;;;;;6.03;5.43;;;23.50;73.10;;;;;;5053152;28;20079;-74
2021/08/11 02:00:23;;;;;;;5.50;5.00;;;23.50;73.20;;;;;;5053829;28;20039;-74
2021/08/11 02:02:50;;;;;;;6.68;5.13;;;23.40;73.20;;;;;;5053495;28;20029;-74
2021/08/11 02:05:18;;;;;;;8.60;5.22;;;23.40;73.30;;;;;;5054390;28;20043;-73
2021/08/11 02:07:45;;;;;;;7.32;5.65;;;23.40;73.40;;;;;;5057328;28;20427;-74
2021/08/11 02:10:13;;;;;;;7.28;5.80;;;23.40;73.40;;;;;;5056579;28;20025;-74
2021/08/11 02:12:38;;;;;;;8.25;5.32;;;23.40;73.50;;;;;;5057245;28;20496;-74
2021/08/11 02:15:08;;;;;;;7.40;5.70;;;23.40;73.50;;;;;;5056820;28;20057;-74
2021/08/11 02:17:37;;;;;;;6.07;5.43;;;23.40;73.70;;;;;;5056858;28;20029;-73
2021/08/11 02:20:07;;;;;;;7.28;5.57;;;23.30;73.80;;;;;;5057076;28;20029;-74
2021/08/11 02:22:36;;;;;;;6.30;5.70;;;23.30;73.80;;;;;;5056324;28;20357;-74
2021/08/11 02:25:10;;;;;;;6.25;5.63;;;23.30;73.90;;;;;;5057408;28;20029;-74
2021/08/11 02:27:41;;;;;;;;;;;23.30;74.10;;;;;;5057340;28;20032;-74
2021/08/11 02:30:13;;;;;;;6.53;5.80;;;23.30;73.70;;;;;;5056594;28;19911;-74
2021/08/11 02:32:39;;;;;;;6.20;5.60;;;23.30;74.00;;;;;;5056871;28;20432;-74
2021/08/11 02:35:12;;;;;;;6.22;5.60;;;23.30;74.00;;;;;;5056818;28;20104;-74
2021/08/11 02:37:42;;;;;;;7.00;5.70;;;23.20;74.20;;;;;;5056867;28;20208;-74
2021/08/11 02:40:08;;;;;;;7.25;5.68;;;23.20;74.30;;;;;;5056585;28;20079;-74
2021/08/11 02:42:40;;;;;;;7.20;5.70;;;23.20;74.40;;;;;;5056714;28;20403;-74
2021/08/11 02:45:10;;;;;;;6.95;5.35;;;23.20;74.50;;;;;;5056359;28;20376;-75
2021/08/11 02:47:37;;;;;;;9.98;5.55;;;23.20;74.50;;;;;;5056082;28;20029;-74
2021/08/11 02:50:05;;;;;;;8.80;5.78;;;23.20;74.60;;;;;;5056621;28;20079;-74
2021/08/11 02:52:31;;;;;;;6.32;5.72;;;23.20;74.60;;;;;;5055322;28;20059;-74
2021/08/11 02:54:58;;;;;;;6.50;5.88;;;23.20;74.60;;;;;;5056861;28;20369;-74
2021/08/11 02:57:24;;;;;;;7.07;5.90;;;23.20;74.70;;;;;;5055782;28;20407;-74
2021/08/11 02:59:51;;;;;;;6.85;6.03;;;23.20;74.60;;;;;;5056377;28;20052;-74
2021/08/11 03:02:17;;;;;;;8.23;6.00;;;23.20;74.60;;;;;;5056570;28;20025;-74
2021/08/11 03:04:43;;;;;;;8.40;5.93;;;23.20;74.60;;;;;;5056018;28;20428;-74
2021/08/11 03:07:09;;;;;;;8.20;5.60;;;23.20;74.60;;;;;;5056243;28;20071;-74
2021/08/11 03:09:35;;;;;;;7.45;5.90;;;23.20;74.60;;;;;;5056688;28;20033;-74
2021/08/11 03:12:05;;;;;;;9.82;6.32;;;23.20;74.60;;;;;;5055967;28;20428;-74
2021/08/11 03:14:32;;;;;;;6.90;5.60;;;23.20;74.60;;;;;;5054955;28;20118;-77
2021/08/11 03:16:57;;;;;;;9.45;5.68;;;23.20;74.60;;;;;;5055734;28;20083;-74
2021/08/11 03:19:24;;;;;;;6.68;5.97;;;23.20;74.50;;;;;;5056470;28;20060;-74
2021/08/11 03:21:50;;;;;;;7.30;6.10;;;23.20;74.30;;;;;;5056589;28;20530;-74
2021/08/11 03:24:18;;;;;;;6.97;6.00;;;23.20;74.30;;;;;;5056019;28;20056;-74
2021/08/11 03:26:43;;;;;;;9.68;6.00;;;23.20;74.10;;;;;;5054588;28;20049;-73
2021/08/11 03:29:09;;;;;;;7.70;6.55;;;23.20;74.10;;;;;;5055563;28;20021;-74
2021/08/11 03:31:35;;;;;;;7.80;5.53;;;23.20;74.00;;;;;;5056676;28;20357;-74
2021/08/11 03:34:00;;;;;;;8.18;6.43;;;23.20;74.00;;;;;;5055949;28;20364;-77
2021/08/11 03:36:27;;;;;;;6.10;5.38;;;23.20;74.00;;;;;;5055555;28;20029;-74
2021/08/11 03:38:53;;;;;;;6.57;5.63;;;23.20;74.00;;;;;;5055772;28;20036;-74
2021/08/11 03:41:19;;;;;;;6.38;5.75;;;23.20;74.00;;;;;;5055931;28;20083;-73
2021/08/11 03:43:45;;;;;;;6.40;5.60;;;23.20;74.00;;;;;;5054857;28;20473;-74
2021/08/11 03:46:11;;;;;;;7.72;6.30;;;23.20;74.00;;;;;;5055751;28;20094;-75
2021/08/11 03:48:37;;;;;;;6.53;5.57;;;23.30;74.00;;;;;;5055871;28;20029;-76
2021/08/11 03:51:03;;;;;;;6.57;5.53;;;23.30;73.90;;;;;;5055637;28;20107;-74
2021/08/11 03:53:28;;;;;;;9.02;6.80;;;23.30;73.90;;;;;;5055944;28;20492;-74
2021/08/11 03:55:54;;;;;;;8.82;6.47;;;23.40;73.80;;;;;;5055607;28;20056;-75
2021/08/11 03:58:20;;;;;;;7.28;6.57;;;23.40;73.80;;;;;;5054950;28;20043;-75
2021/08/11 04:00:46;;;;;;;7.00;6.30;;;23.50;74.00;;;;;;5055437;28;20033;-74
2021/08/11 04:03:11;;;;;;;6.97;6.28;;;23.50;73.90;;;;;;5054618;28;20051;-73
2021/08/11 04:05:37;;;;;;;6.13;5.53;;;23.60;74.50;;;;;;5055060;28;20040;-75
2021/08/11 04:08:03;;;;;;;9.40;5.90;;;23.60;73.90;;;;;;5055206;28;20036;-76
2021/08/11 04:10:29;;;;;;;7.55;6.15;;;23.70;73.70;;;;;;5054005;28;20041;-73
2021/08/11 04:12:55;;;;;;;6.53;5.70;;;23.70;73.60;;;;;;5055194;28;20024;-73
2021/08/11 04:15:20;;;;;;;8.40;6.03;;;23.70;73.50;;;;;;5055094;28;20399;-74
2021/08/11 04:17:46;;;;;;;6.40;5.85;;;23.80;73.40;;;;;;5054845;28;20033;-74
2021/08/11 04:20:12;;;;;;;9.90;6.03;;;23.90;73.30;;;;;;5055124;28;20373;-73
2021/08/11 04:22:38;;;;;;;6.57;5.82;;;23.90;73.20;;;;;;5055317;28;20086;-74
2021/08/11 04:25:04;;;;;;;9.35;6.05;;;23.90;72.90;;;;;;5055793;28;20025;-79
2021/08/11 04:27:30;;;;;;;6.88;6.20;;;24.00;72.80;;;;;;5054582;28;20031;-75
2021/08/11 04:29:56;;;;;;;10.15;6.13;;;24.00;72.40;;;;;;5054549;28;20025;-74
2021/08/11 04:32:21;;;;;;;7.38;6.40;;;24.10;72.20;;;;;;5054820;28;20021;-75
2021/08/11 04:34:48;;;;;;;7.57;5.97;;;24.10;72.00;;;;;;5055101;28;20025;-74
2021/08/11 04:37:17;;;;;;;7.13;5.88;;;24.20;72.00;;;;;;5054350;28;20071;-75
2021/08/11 04:39:42;;;;;;;6.93;5.82;;;24.20;71.70;;;;;;5054750;28;20079;-75
2021/08/11 04:42:08;;;;;;;8.88;5.80;;;24.30;71.60;;;;;;5054650;28;20029;-75
2021/08/11 04:44:34;;;;;;;7.40;5.85;;;24.30;71.40;;;;;;5053322;28;20075;-75
2021/08/11 04:47:00;;;;;;;8.85;6.55;;;24.30;71.10;;;;;;5054461;28;20036;-74
2021/08/11 04:49:25;;;;;;;6.70;5.95;;;24.30;71.10;;;;;;5054492;28;20032;-75
2021/08/11 04:51:51;;;;;;;6.78;5.65;;;24.40;70.80;;;;;;5054679;28;20400;-74
2021/08/11 04:54:17;;;;;;;10.55;5.85;;;24.40;70.60;;;;;;5054774;28;20045;-74
2021/08/11 04:56:43;;;;;;;6.82;5.45;;;24.50;70.60;;;;;;5054417;28;20036;-74
2021/08/11 04:59:08;;;;;;;6.50;5.90;;;24.50;70.30;;;;;;5054048;28;20059;-75
2021/08/11 05:01:34;;;;;;;7.80;5.70;;;24.50;70.00;;;;;;5054294;28;20021;-74
2021/08/11 05:04:00;;;;;;;6.00;5.40;;;24.60;69.90;;;;;;5053942;28;20036;-76
2021/08/11 05:06:25;;;;;;;7.05;5.85;;;24.60;69.70;;;;;;5053853;28;20025;-74
2021/08/11 05:08:51;;;;;;;7.35;5.55;;;24.70;69.60;;;;;;5052612;28;20037;-75
2021/08/11 05:11:17;;;;;;;8.52;5.93;;;24.70;69.50;;;;;;5054141;28;20103;-73
2021/08/11 05:13:44;;;;;;;7.22;5.70;;;24.70;69.60;;;;;;5054597;28;20032;-75
2021/08/11 05:16:10;;;;;;;10.38;6.03;;;24.80;69.30;;;;;;5054020;28;20366;-75
2021/08/11 05:18:35;;;;;;;6.30;5.70;;;24.90;69.10;;;;;;5052467;28;20040;-75
2021/08/11 05:21:01;;;;;;;7.57;6.47;;;24.90;68.80;;;;;;5053954;28;20029;-74
2021/08/11 05:23:27;;;;;;;8.32;6.30;;;25.00;68.70;;;;;;5069262;28;20025;-74
2021/08/11 05:25:53;;;;;;;6.80;5.75;;;24.90;68.50;;;;;;5052597;28;20078;-74
2021/08/11 05:28:19;;;;;;;10.48;6.13;;;25.00;68.60;;;;;;5053704;28;20037;-75
2021/08/11 05:30:44;;;;;;;6.72;5.97;;;25.00;68.40;;;;;;5053712;28;20032;-74
2021/08/11 05:33:10;;;;;;;9.02;5.95;;;25.00;68.30;;;;;;5053325;28;20488;-74
2021/08/11 05:35:36;;;;;;;8.90;5.72;;;25.10;68.40;;;;;;5053637;28;20060;-74
2021/08/11 05:38:05;;;;;;;6.57;5.90;;;25.20;68.20;;;;;;5053618;28;20055;-75
2021/08/11 05:40:32;;;;;;;7.35;6.13;;;25.20;68.10;;;;;;5053181;28;20449;-75
2021/08/11 05:42:57;;;;;;;6.57;5.70;;;25.30;68.00;;;;;;5052302;28;20025;-74
2021/08/11 05:45:23;;;;;;;6.97;6.25;;;25.40;67.80;;;;;;5053173;28;20457;-75
2021/08/11 05:47:49;;;;;;;6.85;6.20;;;25.40;67.70;;;;;;5053415;28;20107;-75
2021/08/11 05:50:15;;;;;;;9.45;5.93;;;25.50;67.50;;;;;;5051962;28;20032;-75
2021/08/11 05:52:40;;;;;;;11.65;6.32;;;25.50;67.30;;;;;;5053294;28;20045;-75
2021/08/11 05:55:07;;;;;;;8.45;6.07;;;25.50;67.20;;;;;;5053441;28;20394;-75
2021/08/11 05:57:39;;;;;;;8.65;6.63;;;25.60;67.10;;;;;;5052989;28;20465;-75
2021/08/11 06:00:07;;;;;;;9.52;6.45;;;25.60;67.10;;;;;;5052950;28;20469;-75
2021/08/11 06:02:42;;;;;;;10.82;6.70;;;25.70;67.20;;;;;;5053844;28;20369;-74
2021/08/11 06:05:10;;;;;;;7.75;5.68;;;25.80;67.20;;;;;;5053380;28;20399;-75
2021/08/11 06:07:36;;;;;;;7.85;6.32;;;25.90;67.20;;;;;;5052004;28;20029;-75
2021/08/11 06:10:04;;;;;;;8.60;6.55;;;26.00;67.00;;;;;;5053293;28;20060;-75
2021/08/11 06:12:30;;;;;;;8.10;6.22;;;26.10;66.80;;;;;;5053218;28;20028;-73
2021/08/11 06:14:56;;;;;;;8.45;6.63;;;26.20;66.70;;;;;;5053598;28;20415;-73
2021/08/11 06:17:21;;;;;;;9.50;6.68;;;26.20;66.70;;;;;;5052820;28;20033;-74
2021/08/11 06:19:48;;;;;;;11.23;7.18;;;26.30;66.60;;;;;;5053253;28;20033;-75
2021/08/11 06:22:14;;;;;;;7.55;6.80;;;26.30;66.60;;;;;;5053014;28;20025;-75
2021/08/11 06:24:40;;;;;;;40.10;12.65;;;26.40;66.40;;;;;;5052888;28;20035;-74
2021/08/11 06:27:06;;;;;;;11.65;7.68;;;26.50;66.50;;;;;;5053237;28;20029;-74
2021/08/11 06:29:32;;;;;;;10.80;7.05;;;26.50;66.50;;;;;;5053418;28;20461;-74
2021/08/11 06:31:58;;;;;;;11.23;7.07;;;26.60;66.30;;;;;;5053155;28;20028;-74
2021/08/11 06:34:24;;;;;;;11.98;6.90;;;26.70;66.20;;;;;;5053176;28;20021;-75
2021/08/11 06:36:53;;;;;;;9.90;6.80;;;26.80;65.90;;;;;;5053034;28;20033;-75
2021/08/11 06:39:19;;;;;;;7.82;6.45;;;26.90;65.70;;;;;;5052381;28;20456;-75
2021/08/11 06:41:45;;;;;;;15.85;6.78;;;27.00;65.50;;;;;;5051704;28;20108;-74
2021/08/11 06:44:11;;;;;;;8.80;7.03;;;27.20;65.40;;;;;;5052817;28;20025;-74
2021/08/11 06:46:37;;;;;;;8.68;6.57;;;27.30;65.10;;;;;;5052870;28;20079;-74
2021/08/11 06:49:03;;;;;;;7.97;6.45;;;27.40;65.00;;;;;;5053374;28;20029;-75
2021/08/11 06:51:30;;;;;;;8.02;6.68;;;27.40;64.90;;;;;;5055556;28;20040;-74
2021/08/11 06:53:56;;;;;;;9.18;6.03;;;27.50;64.80;;;;;;5057026;28;20040;-74
2021/08/11 06:56:21;;;;;;;7.80;6.72;;;27.60;64.70;;;;;;5057054;28;20017;-75
2021/08/11 06:58:47;;;;;;;7.43;5.85;;;27.70;64.50;;;;;;5057052;28;20461;-76
2021/08/11 07:01:13;;;;;;;9.07;6.53;;;27.90;64.30;;;;;;5056676;28;20100;-76
2021/08/11 07:03:39;;;;;;;8.88;6.88;;;28.00;64.10;;;;;;5056621;28;20033;-74
2021/08/11 07:06:06;;;;;;;10.90;6.10;;;28.10;63.80;;;;;;5055875;28;20025;-76
2021/08/11 07:08:34;;;;;;;7.72;6.13;;;28.10;63.60;;;;;;5055179;28;20032;-75
2021/08/11 07:11:00;;;;;;;6.88;6.07;;;28.20;63.60;;;;;;5056088;28;20021;-75
2021/08/11 07:13:26;;;;;;;8.60;5.65;;;28.20;63.50;;;;;;5056390;28;20037;-76
2021/08/11 07:15:52;;;;;;;8.93;6.53;;;28.20;63.40;;;;;;5056177;28;20103;-75
2021/08/11 07:18:19;;;;;;;7.63;6.22;;;28.20;63.50;;;;;;5054976;28;20029;-75
2021/08/11 07:20:45;;;;;;;11.90;6.90;;;28.10;63.50;;;;;;5056300;28;20048;-75
2021/08/11 07:23:10;;;;;;;11.02;6.53;;;28.10;63.60;;;;;;5055092;28;20021;-75
2021/08/11 07:25:36;;;;;;;8.52;5.68;;;28.20;63.70;;;;;;5056071;28;20074;-74
2021/08/11 07:28:02;;;;;;;10.15;6.45;;;28.20;63.80;;;;;;5054873;28;20029;-73
2021/08/11 07:30:28;;;;;;;26.48;6.95;;;28.30;63.60;;;;;;5056319;28;20502;-76
2021/08/11 07:32:53;;;;;;;10.40;6.68;;;28.50;63.50;;;;;;5056028;28;20111;-76
2021/08/11 07:35:20;;;;;;;29.55;7.45;;;28.60;63.20;;;;;;5056661;28;20116;-75
2021/08/11 07:37:54;;;;;;;11.98;6.65;;;28.70;63.00;;;;;;5057704;28;20124;-73
2021/08/11 07:40:21;;;;;;;;;;;28.90;62.90;;;;;;5055112;28;20029;-76
2021/08/11 07:42:48;;;;;;;10.15;6.22;;;28.90;62.90;;;;;;5055838;28;19904;-74
2021/08/11 07:45:16;;;;;;;10.15;6.35;;;29.00;62.60;;;;;;5055726;28;20070;-75
2021/08/11 07:47:46;;;;;;;9.48;6.38;;;29.00;62.40;;;;;;5055966;28;20029;-75
2021/08/11 07:50:14;;;;;;;14.02;6.63;;;29.00;62.30;;;;;;5056023;28;20156;-76
2021/08/11 07:52:40;;;;;;;19.55;7.60;;;29.00;62.10;;;;;;5055557;28;20057;-75
2021/08/11 07:55:07;;;;;;;9.07;6.55;;;29.10;62.10;;;;;;5055880;28;20021;-74
2021/08/11 07:57:33;;;;;;;16.05;6.50;;;29.20;61.90;;;;;;5055833;28;20029;-76
2021/08/11 07:59:59;;;;;;;14.98;7.45;;;29.30;61.80;;;;;;5055863;28;20431;-74
2021/08/11 08:02:25;;;;;;;16.15;6.78;;;29.40;61.60;;;;;;5071492;28;20025;-75
2021/08/11 08:04:51;;;;;;;14.07;7.22;;;29.50;61.60;;;;;;5055513;28;20520;-75
2021/08/11 08:07:17;;;;;;;9.07;7.13;;;29.60;61.30;;;;;;5070804;28;20065;-77
2021/08/11 08:09:42;;;;;;;13.10;7.05;;;29.70;61.10;;;;;;5053917;28;20082;-75
2021/08/11 08:12:09;;;;;;;8.88;7.10;;;29.80;60.90;;;;;;5055600;28;20376;-75
2021/08/11 08:14:34;;;;;;;9.35;6.70;;;29.90;60.60;;;;;;5037439;28;20032;-75
2021/08/11 08:17:00;;;;;;;13.13;6.40;;;30.10;60.30;;;;;;5055331;28;20040;-75
2021/08/11 08:19:28;;;;;;;9.50;6.80;;;30.20;60.10;;;;;;5056334;28;20048;-75
2021/08/11 08:21:54;;;;;;;9.38;6.43;;;30.40;59.90;;;;;;5054017;28;20033;-76
2021/08/11 08:24:21;;;;;;;10.63;6.78;;;30.50;59.50;;;;;;5055480;28;20511;-76
2021/08/11 08:26:47;;;;;;;10.30;6.80;;;30.70;59.20;;;;;;5055124;28;20032;-76
2021/08/11 08:29:13;;;;;;;12.15;6.40;;;30.90;59.00;;;;;;5054908;28;20373;-76
2021/08/11 08:31:39;;;;;;;6.80;6.07;;;31.10;58.70;;;;;;5055120;28;20175;-75
2021/08/11 08:34:05;;;;;;;7.45;6.00;;;31.30;58.60;;;;;;5054879;28;20492;-75
2021/08/11 08:36:31;;;;;;;8.50;6.05;;;31.40;58.10;;;;;;5053287;28;20116;-75
2021/08/11 08:38:57;;;;;;;11.15;6.13;;;31.70;57.90;;;;;;5054771;28;20159;-75
2021/08/11 08:41:22;;;;;;;7.30;5.82;;;31.90;57.30;;;;;;5054068;28;20025;-75
2021/08/11 08:43:48;;;;;;;7.80;5.65;;;32.00;57.00;;;;;;5054217;28;20032;-75
2021/08/11 08:46:16;;;;;;;8.25;5.47;;;32.20;56.60;;;;;;5053350;28;20377;-75
2021/08/11 08:48:42;;;;;;;12.15;6.10;;;32.40;56.20;;;;;;5054499;28;20123;-75
2021/08/11 08:51:12;;;;;;;5.97;5.40;;;32.60;56.10;;;;;;5054293;28;20052;-75
2021/08/11 08:53:44;;;;;;;7.50;5.55;;;32.90;55.50;;;;;;5054350;28;20523;-75
2021/08/11 08:56:10;;;;;;;8.27;5.55;;;33.10;54.90;;;;;;5054303;28;20037;-75
2021/08/11 08:58:38;;;;;;;7.57;4.97;;;33.20;54.40;;;;;;5054547;28;20448;-74
2021/08/11 09:01:04;;;;;;;6.03;4.68;;;33.40;53.80;;;;;;5054152;28;20061;-73
2021/08/11 09:03:31;;;;;;;6.38;5.10;;;33.60;53.50;;;;;;5052986;28;20400;-74
2021/08/11 09:05:57;;;;;;;6.30;4.63;;;33.90;53.20;;;;;;5054631;28;20025;-73
2021/08/11 09:08:22;;;;;;;7.40;4.75;;;34.00;52.70;;;;;;5054428;28;20036;-76
2021/08/11 09:10:49;;;;;;;6.38;4.82;;;34.20;52.40;;;;;;5054450;28;20334;-76
2021/08/11 09:13:19;;;;;;;6.65;4.72;;;34.50;52.30;;;;;;5055732;28;20021;-75
2021/08/11 09:15:50;;;;;;;5.72;4.30;;;34.80;52.00;;;;;;5054422;28;20104;-74
2021/08/11 09:18:22;;;;;;;6.20;5.00;;;35.10;51.40;;;;;;5054566;28;20029;-74
2021/08/11 09:20:58;;;;;;;5.90;4.50;;;35.30;50.60;;;;;;5054323;28;20060;-75
2021/08/11 09:23:36;;;;;;;12.48;5.05;;;35.60;50.40;;;;;;5054643;28;20021;-76
2021/08/11 09:26:14;;;;;;;5.55;4.10;;;35.90;50.10;;;;;;5054679;28;20025;-76
2021/08/11 09:28:42;;;;;;;4.93;4.28;;;36.10;49.70;;;;;;5054484;28;20353;-76
2021/08/11 09:31:31;;;;;;;5.93;4.30;;;36.30;49.30;;;;;;5055562;28;20020;-76
2021/08/11 09:34:00;;;;;;;4.68;4.30;;;36.50;49.00;;;;;;5053626;28;20464;-76
2021/08/11 09:36:26;;;;;;;6.20;4.50;;;36.80;48.90;;;;;;5053727;28;20075;-76
2021/08/11 09:39:04;;;;;;;12.43;4.95;;;37.00;48.50;;;;;;5052749;28;20052;-76
2021/08/11 09:41:33;;;;;;;5.38;4.13;;;37.20;48.30;;;;;;5054373;28;20510;-77
2021/08/11 09:44:12;;;;;;;6.40;4.28;;;37.30;47.80;;;;;;5053394;28;20048;-73
2021/08/11 09:46:40;;;;;;;5.72;4.13;;;37.30;47.50;;;;;;5053842;28;20021;-74
2021/08/11 09:49:25;;;;;;;7.22;4.60;;;37.40;47.50;;;;;;5054367;28;20055;-76
2021/08/11 09:52:02;;;;;;;5.20;4.70;;;37.60;47.40;;;;;;5054607;28;20090;-76
2021/08/11 09:54:29;;;;;;;7.95;4.60;;;37.90;47.00;;;;;;5054450;28;20529;-75
2021/08/11 09:56:59;;;;;;;5.63;4.55;;;38.10;46.70;;;;;;5053480;28;20044;-75
2021/08/11 09:59:29;;;;;;;7.57;4.50;;;38.30;46.20;;;;;;5053545;28;20112;-75
2021/08/11 10:02:16;;;;;;;6.25;4.38;;;38.30;46.00;;;;;;5052314;28;20032;-74
2021/08/11 10:04:42;;;;;;;6.65;4.72;;;38.40;45.80;;;;;;5053456;28;20067;-75
2021/08/11 10:07:10;;;;;;;13.07;4.47;;;38.50;45.80;;;;;;5053413;28;20061;-75
2021/08/11 10:09:36;;;;;;;5.68;3.97;;;38.60;45.70;;;;;;5052068;28;20120;-75
2021/08/11 10:13:01;;;;;;;5.35;4.75;;;38.70;46.10;;;;;;5053542;28;20056;-76
2021/08/11 10:15:34;;;;;;;6.50;4.40;;;38.60;45.30;;;;;;5050144;28;20535;-75
2021/08/11 10:18:01;;;;;;;4.95;4.10;;;38.70;45.10;;;;;;5053068;28;20033;-75
2021/08/11 10:20:27;;;;;;;6.32;4.10;;;39.00;44.90;;;;;;5053389;28;20445;-75
2021/08/11 10:22:53;;;;;;;5.35;4.40;;;39.10;44.80;;;;;;5053178;28;20105;-75
2021/08/11 10:25:21;;;;;;;10.45;4.25;;;39.30;44.40;;;;;;5054008;28;20048;-74
2021/08/11 10:27:50;;;;;;;4.40;4.00;;;39.40;44.00;;;;;;5057329;28;20025;-74
2021/08/11 10:30:16;;;;;;;8.70;4.45;;;39.50;43.80;;;;;;5057201;28;20029;-74
2021/08/11 10:32:42;;;;;;;5.03;4.30;;;39.70;43.90;;;;;;5056011;28;20108;-74
2021/08/11 10:35:09;;;;;;;4.70;4.22;;;39.90;43.50;;;;;;5057171;28;20039;-75
2021/08/11 10:37:35;;;;;;;4.65;4.15;;;39.90;43.40;;;;;;5057582;28;20037;-75
2021/08/11 10:40:03;;;;;;;8.43;4.32;;;40.20;43.20;;;;;;5056910;28;20025;-75
2021/08/11 10:42:28;;;;;;;7.28;4.50;;;40.40;43.00;;;;;;5055690;28;20365;-75
2021/08/11 10:44:59;;;;;;;14.20;4.75;;;40.60;42.90;;;;;;5057152;28;20028;-76
2021/08/11 10:47:33;;;;;;;13.20;4.85;;;40.90;42.50;;;;;;5056895;28;20029;-76
2021/08/11 10:50:02;;;;;;;5.70;4.13;;;41.10;42.10;;;;;;5056837;28;20039;-75
2021/08/11 10:52:30;;;;;;;5.07;4.35;;;41.40;42.00;;;;;;5056861;28;20021;-76
2021/08/11 10:54:56;;;;;;;4.60;4.10;;;41.70;41.60;;;;;;5056226;28;20485;-75
2021/08/11 10:57:37;;;;;;;5.40;4.50;;;41.80;41.20;;;;;;5056590;28;20045;-75
2021/08/11 11:00:21;;;;;;;6.00;4.25;;;42.00;41.00;;;;;;5056566;28;20074;-76
2021/08/11 11:02:49;;;;;;;6.28;4.07;;;42.00;40.70;;;;;;5056253;28;20488;-75
2021/08/11 11:05:20;;;;;;;7.25;3.95;;;41.70;40.80;;;;;;5056585;28;20033;-76
2021/08/11 11:08:15;;;;;;;4.25;3.78;;;41.70;40.60;;;;;;5056320;28;20028;-76
2021/08/11 11:10:46;;;;;;;6.45;4.60;;;42.00;40.50;;;;;;5056457;28;20052;-76
2021/08/11 11:13:29;;;;;;;4.60;4.07;;;42.30;40.20;;;;;;5056400;28;20100;-76
2021/08/11 11:15:56;;;;;;;4.93;4.22;;;42.50;39.90;;;;;;5055935;28;20056;-77
2021/08/11 11:18:25;;;;;;;4.30;3.90;;;42.80;39.70;;;;;;5055952;28;20504;-76
2021/08/11 11:20:57;;;;;;;7.82;3.90;;;43.10;39.50;;;;;;5056756;28;20036;-76
2021/08/11 11:23:42;;;;;;;7.87;4.23;;;43.40;38.90;;;;;;5057339;28;20024;-75
2021/08/11 11:26:09;;;;;;;5.70;3.95;;;43.70;38.70;;;;;;5057205;28;20051;-75
2021/08/11 11:28:53;;;;;;;5.45;4.35;;;43.90;38.50;;;;;;5056198;28;20112;-77
2021/08/11 11:31:43;;;;;;;6.97;3.70;;;44.20;38.40;;;;;;5054620;28;20029;-75
2021/08/11 11:34:21;;;;;;;3.78;3.42;;;44.40;37.90;;;;;;5054582;28;20065;-76
2021/08/11 11:36:55;;;;;;;6.45;4.05;;;44.70;37.50;;;;;;5055287;28;20025;-76
2021/08/11 11:39:22;;;;;;;7.20;3.60;;;45.00;37.20;;;;;;5054590;28;20047;-75
2021/08/11 11:42:11;;;;;;;5.25;3.95;;;45.20;37.00;;;;;;5054057;28;20028;-76
2021/08/11 11:44:54;;;;;;;4.60;3.47;;;45.40;36.50;;;;;;5055938;28;20029;-77
2021/08/11 11:47:35;;;;;;;;;;;45.60;36.30;;;;;;5055611;28;20090;-75
2021/08/11 11:50:19;;;;;;;6.03;3.58;;;45.70;37.00;;;;;;5055475;28;20261;-75
2021/08/11 11:52:56;;;;;;;5.25;3.75;;;45.90;36.30;;;;;;5055394;28;20142;-76
2021/08/11 11:55:30;;;;;;;6.63;3.80;;;46.10;35.80;;;;;;5055685;28;20381;-75
2021/08/11 11:57:57;;;;;;;6.35;3.30;;;46.30;35.60;;;;;;5055140;28;20099;-76
2021/08/11 12:00:23;;;;;;;3.78;3.45;;;46.50;35.40;;;;;;5055449;28;20025;-75
2021/08/11 12:02:53;;;;;;;6.72;3.47;;;46.80;35.20;;;;;;5053940;28;20025;-76
2021/08/11 12:05:20;;;;;;;3.70;3.30;;;47.10;34.90;;;;;;5055236;28;20032;-75
2021/08/11 12:07:46;;;;;;;3.55;3.10;;;47.20;34.70;;;;;;5055277;28;20025;-77
2021/08/11 12:10:25;;;;;;;6.43;3.13;;;47.30;34.70;;;;;;5054865;28;20032;-76
2021/08/11 12:13:00;;;;;;;3.65;3.35;;;47.50;34.60;;;;;;5055202;28;20025;-76
2021/08/11 12:15:30;;;;;;;3.10;2.90;;;47.60;34.50;;;;;;5055316;28;20025;-78
2021/08/11 12:17:58;;;;;;;4.90;3.13;;;47.60;34.20;;;;;;5053805;28;20111;-77
2021/08/11 12:20:28;;;;;;;4.53;2.90;;;47.60;34.20;;;;;;5054251;28;20102;-76
2021/08/11 12:22:55;;;;;;;4.03;2.83;;;47.80;34.20;;;;;;5055232;28;20106;-76
2021/08/11 12:25:27;;;;;;;3.75;2.97;;;47.90;34.70;;;;;;5055074;28;20368;-75
2021/08/11 12:28:09;;;;;;;7.85;3.33;;;47.80;33.80;;;;;;5054641;28;20482;-76
2021/08/11 12:30:37;;;;;;;4.82;3.35;;;47.80;33.60;;;;;;5053712;28;20029;-75
2021/08/11 12:33:04;;;;;;;5.18;3.25;;;47.80;33.40;;;;;;5055305;28;20461;-76
2021/08/11 12:35:31;;;;;;;5.80;3.03;;;47.70;33.40;;;;;;5054829;28;20025;-75
2021/08/11 12:37:56;;;;;;;6.57;3.25;;;47.80;33.40;;;;;;5054648;28;20033;-78
2021/08/11 12:40:32;;;;;;;4.88;3.25;;;47.80;33.30;;;;;;5053754;28;20033;-74
2021/08/11 12:42:59;;;;;;;3.22;2.92;;;47.80;33.00;;;;;;5054997;28;20029;-76
2021/08/11 12:45:25;;;;;;;7.25;3.30;;;47.50;33.20;;;;;;5054172;28;20025;-74
2021/08/11 12:47:51;;;;;;;5.25;3.17;;;47.60;33.40;;;;;;5053735;28;20025;-74
2021/08/11 12:50:18;;;;;;;6.60;3.10;;;47.80;33.30;;;;;;5053142;28;20102;-74
2021/08/11 12:52:57;;;;;;;3.08;2.90;;;47.90;33.20;;;;;;5052807;28;20412;-77